createdAt,value
2023-04-10T00:02:20.342Z,13.40
2023-04-10T00:04:46.857Z,13.39
2023-04-10T00:07:14.148Z,13.36
2023-04-10T00:09:40.471Z,13.43
2023-04-10T00:12:06.874Z,13.37
2023-04-10T00:14:33.179Z,13.38
2023-04-10T00:16:59.582Z,13.38
2023-04-10T00:19:26.137Z,13.29
2023-04-10T00:21:52.418Z,13.29
2023-04-10T00:24:18.746Z,13.26
2023-04-10T00:26:45.042Z,13.35
2023-04-10T00:29:11.532Z,13.23
2023-04-10T00:31:37.850Z,13.24
2023-04-10T00:34:04.212Z,13.16
2023-04-10T00:36:31.650Z,13.15
2023-04-10T00:38:58.185Z,13.20
2023-04-10T00:41:24.714Z,13.26
2023-04-10T00:43:55.210Z,13.31
2023-04-10T00:46:21.843Z,13.26
2023-04-10T00:48:48.202Z,13.38
2023-04-10T00:51:14.660Z,13.36
2023-04-10T00:53:41.076Z,13.48
2023-04-10T00:56:07.573Z,13.58
2023-04-10T00:58:33.859Z,13.51
2023-04-10T01:01:00.588Z,13.50
2023-04-10T01:03:27.648Z,13.43
2023-04-10T01:05:58.924Z,13.48
2023-04-10T01:08:25.417Z,13.38
2023-04-10T01:10:54.233Z,13.59
2023-04-10T01:13:20.672Z,13.64
2023-04-10T01:15:53.322Z,13.73
2023-04-10T01:18:28.199Z,13.70
2023-04-10T01:20:54.518Z,13.81
2023-04-10T01:23:36.707Z,13.88
2023-04-10T01:26:03.610Z,13.90
2023-04-10T01:28:30.092Z,13.72
2023-04-10T01:30:57.670Z,13.70
2023-04-10T01:33:25.548Z,13.98
2023-04-10T01:35:53.637Z,13.92
2023-04-10T01:38:20.900Z,13.87
2023-04-10T01:40:50.198Z,13.50
2023-04-10T01:43:16.923Z,13.63
2023-04-10T01:45:43.696Z,13.72
2023-04-10T01:48:10.313Z,13.94
2023-04-10T01:50:36.851Z,14.03
2023-04-10T01:53:03.638Z,14.08
2023-04-10T01:55:29.934Z,13.86
2023-04-10T01:57:56.470Z,13.95
2023-04-10T02:00:23.101Z,13.73
2023-04-10T02:02:50.886Z,13.57
2023-04-10T02:05:17.319Z,13.70
2023-04-10T02:07:49.697Z,13.66
2023-04-10T02:10:28.456Z,13.61
2023-04-10T02:12:56.669Z,13.51
2023-04-10T02:15:23.650Z,13.65
2023-04-10T02:17:50.079Z,13.68
2023-04-10T02:20:16.564Z,13.54
2023-04-10T02:22:45.818Z,13.64
2023-04-10T02:25:12.156Z,13.65
2023-04-10T02:27:38.577Z,13.44
2023-04-10T02:30:05.368Z,13.32
2023-04-10T02:32:32.805Z,13.20
2023-04-10T02:34:59.115Z,13.31
2023-04-10T02:37:25.761Z,13.23
2023-04-10T02:39:52.478Z,13.17
2023-04-10T02:42:18.764Z,13.13
2023-04-10T02:44:45.049Z,13.08
2023-04-10T02:47:11.370Z,13.23
2023-04-10T02:49:37.686Z,13.04
2023-04-10T02:52:04.292Z,12.94
2023-04-10T02:54:30.870Z,12.68
2023-04-10T02:56:57.733Z,12.89
2023-04-10T02:59:24.029Z,12.85
2023-04-10T03:01:50.555Z,12.66
2023-04-10T03:04:17.013Z,12.82
2023-04-10T03:06:43.315Z,12.77
2023-04-10T03:09:09.608Z,12.73
2023-04-10T03:11:35.929Z,12.68
2023-04-10T03:14:02.275Z,12.60
2023-04-10T03:16:28.898Z,12.53
2023-04-10T03:18:55.604Z,12.69
2023-04-10T03:21:21.952Z,12.65
2023-04-10T03:23:48.300Z,12.68
2023-04-10T03:26:14.628Z,12.35
2023-04-10T03:28:41.359Z,12.22
2023-04-10T03:31:07.730Z,12.39
2023-04-10T03:33:34.098Z,12.57
2023-04-10T03:36:00.602Z,12.33
2023-04-10T03:38:26.989Z,12.70
2023-04-10T03:40:53.877Z,12.63
2023-04-10T03:43:20.219Z,12.21
2023-04-10T03:45:47.217Z,12.50
2023-04-10T03:48:13.494Z,12.56
2023-04-10T03:50:39.796Z,12.60
2023-04-10T03:53:06.102Z,12.64
2023-04-10T03:55:32.409Z,12.76
2023-04-10T03:57:58.728Z,12.71
2023-04-10T04:00:25.184Z,12.81
2023-04-10T04:02:51.966Z,12.52
2023-04-10T04:05:18.473Z,12.45
2023-04-10T04:07:44.742Z,12.38
2023-04-10T04:10:11.092Z,12.40
2023-04-10T04:12:37.382Z,12.26
2023-04-10T04:15:03.856Z,12.35
2023-04-10T04:17:30.526Z,12.36
2023-04-10T04:19:56.927Z,12.41
2023-04-10T04:22:23.228Z,12.51
2023-04-10T04:24:49.557Z,12.54
2023-04-10T04:27:16.083Z,12.44
2023-04-10T04:29:42.376Z,12.25
2023-04-10T04:32:08.728Z,12.30
2023-04-10T04:34:35.137Z,12.38
2023-04-10T04:37:02.940Z,12.54
2023-04-10T04:39:29.238Z,12.53
2023-04-10T04:41:55.648Z,12.46
2023-04-10T04:44:21.983Z,12.37
2023-04-10T04:46:48.255Z,12.21
2023-04-10T04:49:14.580Z,12.51
2023-04-10T04:51:40.880Z,12.74
2023-04-10T04:54:07.185Z,12.87
2023-04-10T04:56:33.724Z,13.01
2023-04-10T04:59:00.141Z,12.95
2023-04-10T05:01:26.623Z,12.90
2023-04-10T05:03:53.069Z,13.01
2023-04-10T05:06:20.581Z,13.08
2023-04-10T05:08:46.937Z,13.20
2023-04-10T05:11:13.221Z,13.40
2023-04-10T05:13:39.520Z,13.16
2023-04-10T05:16:06.184Z,13.28
2023-04-10T05:18:32.503Z,13.33
2023-04-10T05:20:58.952Z,13.30
2023-04-10T05:23:25.285Z,13.25
2023-04-10T05:25:52.547Z,13.33
2023-04-10T05:28:18.853Z,13.66
2023-04-10T05:30:45.325Z,13.69
2023-04-10T05:33:11.660Z,14.01
2023-04-10T05:35:38.026Z,14.12
2023-04-10T05:38:04.393Z,14.11
2023-04-10T05:40:31.104Z,14.11
2023-04-10T05:42:57.660Z,13.93
2023-04-10T05:45:23.965Z,13.86
2023-04-10T05:47:50.370Z,13.91
2023-04-10T05:50:16.759Z,13.92
2023-04-10T05:52:43.668Z,14.08
2023-04-10T05:55:10.014Z,13.94
2023-04-10T05:57:36.328Z,14.01
2023-04-10T06:00:02.616Z,14.18
2023-04-10T06:02:29.062Z,14.23
2023-04-10T06:04:55.947Z,14.16
2023-04-10T06:07:22.288Z,14.19
2023-04-10T06:09:48.618Z,14.60
2023-04-10T06:12:14.919Z,14.60
2023-04-10T06:14:41.251Z,14.87
2023-04-10T06:17:07.548Z,14.95
2023-04-10T06:19:34.075Z,15.09
2023-04-10T06:22:00.498Z,15.19
2023-04-10T06:24:26.857Z,15.18
2023-04-10T06:26:53.182Z,15.19
2023-04-10T06:29:19.506Z,15.66
2023-04-10T06:31:46.056Z,15.76
2023-04-10T06:34:12.415Z,15.61
2023-04-10T06:36:38.948Z,15.95
2023-04-10T06:39:06.529Z,16.14
2023-04-10T06:41:32.843Z,15.97
2023-04-10T06:44:01.054Z,16.45
2023-04-10T06:46:28.897Z,16.47
2023-04-10T06:48:55.435Z,16.52
2023-04-10T06:51:21.853Z,16.43
2023-04-10T06:53:48.156Z,17.11
2023-04-10T06:56:14.675Z,17.05
2023-04-10T06:58:41.314Z,16.96
2023-04-10T07:01:07.656Z,17.40
2023-04-10T07:03:34.049Z,17.62
2023-04-10T07:06:02.000Z,17.51
2023-04-10T07:08:28.330Z,18.10
2023-04-10T07:10:56.549Z,18.12
2023-04-10T07:13:24.207Z,18.10
2023-04-10T07:15:50.552Z,18.15
2023-04-10T07:18:16.940Z,18.04
2023-04-10T07:20:43.487Z,17.93
2023-04-10T07:23:09.780Z,18.42
2023-04-10T07:25:36.374Z,18.19
2023-04-10T07:28:02.649Z,18.15
2023-04-10T07:30:29.010Z,18.35
2023-04-10T07:32:55.451Z,18.68
2023-04-10T07:35:21.851Z,19.21
2023-04-10T07:37:51.827Z,19.47
2023-04-10T07:40:18.146Z,19.08
2023-04-10T07:42:44.473Z,19.49
2023-04-10T07:45:10.989Z,19.37
2023-04-10T07:47:37.305Z,19.71
2023-04-10T07:50:03.807Z,19.64
2023-04-10T07:52:30.342Z,19.70
2023-04-10T07:54:56.660Z,20.09
2023-04-10T07:57:24.390Z,20.28
2023-04-10T07:59:50.782Z,20.20
2023-04-10T08:02:17.166Z,20.44
2023-04-10T08:04:43.852Z,20.16
2023-04-10T08:07:10.293Z,20.63
2023-04-10T08:09:36.583Z,20.85
2023-04-10T08:12:02.951Z,21.21
2023-04-10T08:14:29.238Z,20.90
2023-04-10T08:16:55.657Z,21.35
2023-04-10T08:19:21.940Z,21.40
2023-04-10T08:21:48.236Z,21.36
2023-04-10T08:24:14.557Z,21.77
2023-04-10T08:26:40.892Z,21.63
2023-04-10T08:29:07.234Z,22.06
2023-04-10T08:31:33.687Z,21.80
2023-04-10T08:34:00.341Z,21.91
2023-04-10T08:36:27.314Z,22.18
2023-04-10T08:38:53.736Z,22.06
2023-04-10T08:41:20.187Z,22.92
2023-04-10T08:43:47.053Z,22.43
2023-04-10T08:46:14.416Z,22.75
2023-04-10T08:48:48.211Z,23.42
2023-04-10T08:51:18.668Z,22.39
2023-04-10T08:53:46.331Z,23.05
2023-04-10T08:56:16.561Z,23.08
2023-04-10T08:58:43.030Z,23.33
2023-04-10T09:01:13.769Z,24.05
2023-04-10T09:03:40.476Z,24.08
2023-04-10T09:06:07.247Z,24.45
2023-04-10T09:08:33.882Z,24.57
2023-04-10T09:11:00.254Z,24.08
2023-04-10T09:13:34.962Z,24.20
2023-04-10T09:16:01.476Z,24.23
2023-04-10T09:18:43.170Z,24.80
2023-04-10T09:21:10.737Z,25.01
2023-04-10T09:23:37.063Z,24.20
2023-04-10T09:26:22.186Z,24.59
2023-04-10T09:29:02.484Z,24.47
2023-04-10T09:31:29.711Z,25.02
2023-04-10T09:34:08.058Z,24.47
2023-04-10T09:36:34.659Z,24.40
2023-04-10T09:39:01.183Z,25.05
2023-04-10T09:41:28.381Z,24.82
2023-04-10T09:44:08.996Z,25.02
2023-04-10T09:46:35.483Z,24.54
2023-04-10T09:49:05.174Z,24.55
2023-04-10T09:51:33.881Z,25.37
2023-04-10T09:54:01.059Z,24.70
2023-04-10T09:56:29.442Z,25.03
2023-04-10T09:58:58.461Z,24.90
2023-04-10T10:01:28.830Z,25.10
2023-04-10T10:03:56.248Z,25.09
2023-04-10T10:06:23.496Z,25.52
2023-04-10T10:08:49.834Z,25.51
2023-04-10T10:11:18.238Z,25.39
2023-04-10T10:13:48.329Z,25.62
2023-04-10T10:16:47.335Z,25.86
2023-04-10T10:19:21.013Z,26.01
2023-04-10T10:21:47.595Z,26.12
2023-04-10T10:24:14.156Z,25.76
2023-04-10T10:26:40.711Z,25.68
2023-04-10T10:29:10.762Z,25.60
2023-04-10T10:31:37.973Z,26.05
2023-04-10T10:34:09.038Z,26.08
2023-04-10T10:36:35.690Z,26.33
2023-04-10T10:39:20.831Z,26.16
2023-04-10T10:42:09.716Z,26.03
2023-04-10T10:44:37.326Z,26.09
2023-04-10T10:47:12.787Z,25.58
2023-04-10T10:49:55.026Z,25.75
2023-04-10T10:52:39.616Z,25.51
2023-04-10T10:55:24.704Z,26.43
2023-04-10T10:57:54.997Z,25.35
2023-04-10T11:00:21.880Z,25.87
2023-04-10T11:03:14.819Z,26.00
2023-04-10T11:05:56.514Z,26.80
2023-04-10T11:08:44.078Z,26.62
2023-04-10T11:11:30.932Z,27.09
2023-04-10T11:14:00.280Z,26.33
2023-04-10T11:16:36.621Z,26.44
2023-04-10T11:19:13.865Z,26.14
2023-04-10T11:22:05.270Z,26.53
2023-04-10T11:24:54.256Z,26.87
2023-04-10T11:27:52.773Z,27.15
2023-04-10T11:30:27.084Z,26.53
2023-04-10T11:32:54.993Z,26.42
2023-04-10T11:35:21.720Z,26.04
2023-04-10T11:37:48.206Z,26.32
2023-04-10T11:40:14.534Z,26.89
2023-04-10T11:42:40.948Z,26.97
2023-04-10T11:45:23.865Z,27.06
2023-04-10T11:47:54.506Z,26.78
2023-04-10T11:50:21.834Z,27.04
2023-04-10T11:52:52.004Z,27.48
2023-04-10T11:55:19.088Z,27.76
2023-04-10T11:57:48.365Z,27.12
2023-04-10T12:00:23.730Z,26.47
2023-04-10T12:02:53.116Z,26.49
2023-04-10T12:05:20.089Z,26.58
2023-04-10T12:07:46.976Z,26.44
2023-04-10T12:10:13.430Z,26.67
2023-04-10T12:12:40.700Z,26.20
2023-04-10T12:15:27.932Z,26.61
2023-04-10T12:17:55.390Z,26.62
2023-04-10T12:20:26.355Z,26.69
2023-04-10T12:22:53.584Z,27.88
2023-04-10T12:25:21.188Z,27.83
2023-04-10T12:27:48.717Z,28.38
2023-04-10T12:30:15.006Z,28.68
2023-04-10T12:32:41.524Z,28.62
2023-04-10T12:35:08.234Z,27.96
2023-04-10T12:37:54.571Z,28.82
2023-04-10T12:40:21.498Z,28.03
2023-04-10T12:42:48.054Z,28.00
2023-04-10T12:45:15.210Z,28.14
2023-04-10T12:47:53.965Z,28.85
2023-04-10T12:50:21.211Z,28.23
2023-04-10T12:53:01.430Z,28.45
2023-04-10T12:55:28.911Z,28.14
2023-04-10T12:57:56.772Z,28.69
2023-04-10T13:00:23.565Z,27.81
2023-04-10T13:02:50.190Z,28.00
2023-04-10T13:05:16.629Z,27.98
2023-04-10T13:07:42.979Z,27.19
2023-04-10T13:10:09.717Z,26.88
2023-04-10T13:12:37.870Z,27.14
2023-04-10T13:15:04.783Z,27.91
2023-04-10T13:17:31.195Z,27.41
2023-04-10T13:19:57.642Z,27.40
2023-04-10T13:22:24.057Z,27.26
2023-04-10T13:24:50.713Z,27.64
2023-04-10T13:27:17.211Z,27.46
2023-04-10T13:29:43.644Z,27.91
2023-04-10T13:32:10.325Z,28.19
2023-04-10T13:34:36.851Z,27.51
2023-04-10T13:37:03.546Z,28.33
2023-04-10T13:39:30.567Z,27.84
2023-04-10T13:41:57.618Z,28.29
2023-04-10T13:44:23.975Z,28.53
2023-04-10T13:46:52.204Z,27.77
2023-04-10T13:49:20.547Z,27.93
2023-04-10T13:51:47.005Z,28.09
2023-04-10T13:54:13.580Z,28.36
2023-04-10T13:56:41.180Z,27.78
2023-04-10T13:59:07.763Z,27.44
2023-04-10T14:01:34.384Z,27.40
2023-04-10T14:04:01.024Z,27.63
2023-04-10T14:06:27.648Z,27.83
2023-04-10T14:08:54.550Z,27.49
2023-04-10T14:11:21.831Z,27.47
2023-04-10T14:13:48.741Z,27.78
2023-04-10T14:16:15.455Z,27.46
2023-04-10T14:18:41.922Z,27.63
2023-04-10T14:21:08.332Z,27.72
2023-04-10T14:23:34.749Z,26.75
2023-04-10T14:26:01.253Z,27.01
2023-04-10T14:28:29.212Z,27.20
2023-04-10T14:30:55.873Z,27.23
2023-04-10T14:33:22.374Z,27.75
2023-04-10T14:35:48.925Z,27.89
2023-04-10T14:38:15.968Z,27.42
2023-04-10T14:40:42.548Z,27.22
2023-04-10T14:43:08.977Z,27.25
2023-04-10T14:45:35.484Z,27.15
2023-04-10T14:48:02.649Z,27.05
2023-04-10T14:50:31.717Z,26.99
2023-04-10T14:53:00.030Z,27.07
2023-04-10T14:55:28.466Z,27.31
2023-04-10T14:57:56.543Z,27.28
2023-04-10T15:00:25.269Z,26.98
2023-04-10T15:02:51.932Z,27.02
2023-04-10T15:05:18.742Z,26.51
2023-04-10T15:07:45.342Z,26.50
2023-04-10T15:10:11.776Z,26.15
2023-04-10T15:12:38.310Z,25.94
2023-04-10T15:15:05.304Z,26.50
2023-04-10T15:17:31.889Z,26.35
2023-04-10T15:19:58.409Z,26.63
2023-04-10T15:22:25.546Z,26.00
2023-04-10T15:24:52.023Z,26.17
2023-04-10T15:27:21.982Z,26.00
2023-04-10T15:29:48.452Z,26.00
2023-04-10T15:32:15.054Z,25.71
2023-04-10T15:34:41.720Z,25.75
2023-04-10T15:37:08.104Z,26.19
2023-04-10T15:39:37.244Z,26.63
2023-04-10T15:42:05.869Z,26.24
2023-04-10T15:44:32.364Z,26.18
2023-04-10T15:46:58.777Z,26.18
2023-04-10T15:49:36.379Z,25.57
2023-04-10T15:52:05.638Z,25.31
2023-04-10T15:54:33.520Z,25.05
2023-04-10T15:56:59.911Z,25.31
2023-04-10T15:59:26.322Z,24.99
2023-04-10T16:01:52.873Z,25.04
2023-04-10T16:04:19.570Z,25.44
2023-04-10T16:06:46.099Z,24.93
2023-04-10T16:09:22.431Z,24.81
2023-04-10T16:11:52.391Z,24.63
2023-04-10T16:14:19.152Z,24.84
2023-04-10T16:16:45.748Z,24.84
2023-04-10T16:19:12.229Z,24.88
2023-04-10T16:21:38.634Z,24.63
2023-04-10T16:24:05.551Z,24.38
2023-04-10T16:26:32.090Z,24.18
2023-04-10T16:28:58.590Z,24.35
2023-04-10T16:31:25.195Z,23.95
2023-04-10T16:33:51.703Z,24.07
2023-04-10T16:36:18.109Z,23.79
2023-04-10T16:38:45.200Z,23.78
2023-04-10T16:41:12.439Z,23.92
2023-04-10T16:43:38.990Z,24.11
2023-04-10T16:46:07.819Z,24.17
2023-04-10T16:48:36.207Z,24.33
2023-04-10T16:51:06.372Z,23.86
2023-04-10T16:53:33.508Z,23.75
2023-04-10T16:56:02.132Z,23.96
2023-04-10T16:58:30.821Z,23.90
2023-04-10T17:00:57.387Z,23.95
2023-04-10T17:03:23.915Z,23.91
2023-04-10T17:05:50.423Z,24.10
2023-04-10T17:08:16.816Z,23.95
2023-04-10T17:10:43.272Z,23.92
2023-04-10T17:13:09.681Z,23.97
2023-04-10T17:15:36.289Z,23.85
2023-04-10T17:18:02.993Z,23.76
2023-04-10T17:20:30.846Z,23.79
2023-04-10T17:22:57.477Z,23.42
2023-04-10T17:25:23.937Z,23.65
2023-04-10T17:27:50.352Z,23.66
2023-04-10T17:30:16.842Z,23.59
2023-04-10T17:32:43.481Z,23.29
2023-04-10T17:35:09.980Z,23.42
2023-04-10T17:37:36.393Z,23.71
2023-04-10T17:40:06.698Z,23.09
2023-04-10T17:42:33.287Z,22.97
2023-04-10T17:44:59.782Z,22.97
2023-04-10T17:47:26.186Z,22.58
2023-04-10T17:49:52.637Z,21.89
2023-04-10T17:52:19.242Z,22.28
2023-04-10T17:54:45.747Z,22.13
2023-04-10T17:57:12.412Z,22.32
2023-04-10T17:59:38.789Z,22.73
2023-04-10T18:02:05.238Z,22.45
2023-04-10T18:04:31.910Z,22.78
2023-04-10T18:06:58.299Z,23.07
2023-04-10T18:09:24.701Z,22.84
2023-04-10T18:11:52.166Z,22.84
2023-04-10T18:14:19.744Z,22.69
2023-04-10T18:16:46.205Z,22.69
2023-04-10T18:19:12.688Z,22.52
2023-04-10T18:21:41.806Z,22.27
2023-04-10T18:24:11.025Z,22.21
2023-04-10T18:26:38.135Z,22.73
2023-04-10T18:29:04.636Z,22.21
2023-04-10T18:31:31.358Z,22.75
2023-04-10T18:34:07.071Z,22.52
2023-04-10T18:36:34.908Z,22.59
2023-04-10T18:39:01.413Z,22.75
2023-04-10T18:41:27.837Z,22.81
2023-04-10T18:44:04.132Z,22.95
2023-04-10T18:46:32.393Z,22.54
2023-04-10T18:49:00.589Z,22.50
2023-04-10T18:51:27.207Z,22.45
2023-04-10T18:53:57.155Z,22.50
2023-04-10T18:56:23.828Z,22.10
2023-04-10T18:58:50.486Z,22.40
2023-04-10T19:01:22.648Z,22.17
2023-04-10T19:03:53.565Z,22.34
2023-04-10T19:06:24.087Z,22.12
2023-04-10T19:08:50.929Z,22.30
2023-04-10T19:11:18.490Z,22.36
2023-04-10T19:13:45.211Z,22.53
2023-04-10T19:16:14.516Z,22.57
2023-04-10T19:18:41.087Z,22.51
2023-04-10T19:21:07.486Z,22.41
2023-04-10T19:23:34.918Z,22.24
2023-04-10T19:26:01.387Z,21.79
2023-04-10T19:28:29.225Z,21.92
2023-04-10T19:30:55.812Z,22.19
2023-04-10T19:33:22.205Z,22.24
2023-04-10T19:35:48.626Z,22.10
2023-04-10T19:38:15.049Z,22.45
2023-04-10T19:40:41.439Z,22.11
2023-04-10T19:43:07.829Z,21.53
2023-04-10T19:45:36.519Z,21.95
2023-04-10T19:48:03.691Z,22.25
2023-04-10T19:50:31.284Z,21.84
2023-04-10T19:52:58.148Z,21.94
2023-04-10T19:55:24.690Z,21.91
2023-04-10T19:57:51.206Z,21.66
2023-04-10T20:00:18.047Z,21.87
2023-04-10T20:02:44.767Z,21.27
2023-04-10T20:05:11.391Z,21.36
2023-04-10T20:07:37.789Z,21.18
2023-04-10T20:10:04.602Z,21.17
2023-04-10T20:12:34.506Z,21.02
2023-04-10T20:15:01.760Z,20.89
2023-04-10T20:17:28.678Z,20.60
2023-04-10T20:19:55.343Z,20.04
2023-04-10T20:22:21.771Z,20.10
2023-04-10T20:24:48.068Z,20.08
2023-04-10T20:27:15.360Z,20.05
2023-04-10T20:29:41.810Z,20.09
2023-04-10T20:32:09.585Z,20.14
2023-04-10T20:34:36.800Z,20.18
2023-04-10T20:37:03.620Z,20.26
2023-04-10T20:39:30.120Z,20.00
2023-04-10T20:41:57.274Z,19.64
2023-04-10T20:44:23.829Z,19.69
2023-04-10T20:46:50.787Z,19.35
2023-04-10T20:49:17.551Z,19.23
2023-04-10T20:51:43.931Z,19.55
2023-04-10T20:54:10.346Z,19.24
2023-04-10T20:56:43.277Z,19.22
2023-04-10T20:59:10.525Z,19.23
2023-04-10T21:01:36.959Z,19.47
2023-04-10T21:04:03.377Z,19.18
2023-04-10T21:06:29.759Z,19.17
2023-04-10T21:08:56.293Z,19.49
2023-04-10T21:11:22.677Z,19.38
2023-04-10T21:13:49.159Z,19.22
2023-04-10T21:16:15.750Z,19.09
2023-04-10T21:18:42.075Z,19.32
2023-04-10T21:21:08.360Z,19.22
2023-04-10T21:23:34.747Z,18.81
2023-04-10T21:26:01.665Z,19.04
2023-04-10T21:28:28.438Z,18.99
2023-04-10T21:30:54.824Z,18.67
2023-04-10T21:33:21.194Z,18.99
2023-04-10T21:35:47.767Z,18.70
2023-04-10T21:38:14.135Z,18.80
2023-04-10T21:40:40.509Z,18.92
2023-04-10T21:43:06.936Z,18.79
2023-04-10T21:45:34.794Z,18.96
2023-04-10T21:48:01.620Z,18.86
2023-04-10T21:50:28.073Z,18.64
2023-04-10T21:52:54.457Z,18.52
2023-04-10T21:55:20.910Z,18.54
2023-04-10T21:57:47.255Z,18.42
2023-04-10T22:00:14.156Z,18.35
2023-04-10T22:02:40.689Z,18.34
2023-04-10T22:05:07.836Z,18.26
2023-04-10T22:07:34.240Z,18.61
2023-04-10T22:10:00.833Z,18.60
2023-04-10T22:12:27.476Z,18.70
2023-04-10T22:14:53.895Z,18.46
2023-04-10T22:17:20.543Z,18.40
2023-04-10T22:19:46.952Z,18.31
2023-04-10T22:22:13.448Z,18.36
2023-04-10T22:24:39.809Z,18.22
2023-04-10T22:27:08.041Z,18.09
2023-04-10T22:29:35.339Z,17.98
2023-04-10T22:32:01.865Z,18.41
2023-04-10T22:34:28.369Z,18.42
2023-04-10T22:36:55.032Z,18.40
2023-04-10T22:39:21.433Z,18.42
2023-04-10T22:41:47.841Z,18.56
2023-04-10T22:44:14.257Z,18.58
2023-04-10T22:46:40.859Z,18.72
2023-04-10T22:49:07.540Z,18.69
2023-04-10T22:51:33.955Z,18.29
2023-04-10T22:54:00.434Z,18.25
2023-04-10T22:56:29.114Z,18.33
2023-04-10T22:58:55.706Z,18.09
2023-04-10T23:01:22.609Z,18.33
2023-04-10T23:03:52.750Z,18.06
2023-04-10T23:06:19.518Z,18.38
2023-04-10T23:08:45.922Z,18.07
2023-04-10T23:11:12.345Z,18.50
2023-04-10T23:13:38.986Z,18.12
2023-04-10T23:16:06.075Z,18.01
2023-04-10T23:18:32.476Z,18.11
2023-04-10T23:20:58.862Z,18.26
2023-04-10T23:23:25.227Z,17.88
2023-04-10T23:26:01.630Z,17.73
2023-04-10T23:28:28.486Z,18.01
2023-04-10T23:30:54.971Z,18.18
2023-04-10T23:33:21.377Z,18.16
2023-04-10T23:35:47.804Z,18.13
2023-04-10T23:38:14.255Z,18.21
2023-04-10T23:40:40.768Z,18.12
2023-04-10T23:43:07.117Z,18.23
2023-04-10T23:45:33.569Z,18.40
2023-04-10T23:48:00.074Z,18.42
2023-04-10T23:50:27.507Z,18.00
2023-04-10T23:52:54.401Z,18.45
2023-04-10T23:55:21.783Z,18.41
2023-04-10T23:57:48.373Z,17.81
